createdAt,value
2016-10-01T00:01:26.454Z,0
2016-10-01T00:06:25.773Z,0
2016-10-01T00:11:26.299Z,0
2016-10-01T00:16:26.243Z,0
2016-10-01T00:21:26.171Z,0
2016-10-01T00:26:25.783Z,0
2016-10-01T00:31:26.019Z,0
2016-10-01T00:36:25.636Z,0
2016-10-01T00:41:25.268Z,0
2016-10-01T00:46:25.790Z,0
2016-10-01T00:51:25.725Z,0
2016-10-01T00:56:25.336Z,0
2016-10-01T01:01:25.576Z,0
2016-10-01T01:06:25.510Z,0
2016-10-01T01:11:25.119Z,0
2016-10-01T01:16:25.354Z,0
2016-10-01T01:21:24.984Z,0
2016-10-01T01:26:25.209Z,0
2016-10-01T01:31:24.826Z,0
2016-10-01T01:36:24.754Z,0
2016-10-01T01:41:24.676Z,0
2016-10-01T01:46:24.899Z,0
2016-10-01T01:51:24.829Z,0
2016-10-01T01:56:24.147Z,0
2016-10-01T02:01:24.685Z,0
2016-10-01T02:06:24.307Z,0
2016-10-01T02:11:24.235Z,0
2016-10-01T02:16:24.472Z,0
2016-10-01T02:21:24.402Z,0
2016-10-01T02:26:24.020Z,0
2016-10-01T02:31:23.941Z,0
2016-10-01T02:36:23.262Z,0
2016-10-01T02:41:24.099Z,0
2016-10-01T02:46:23.726Z,0
2016-10-01T02:51:23.650Z,0
2016-10-01T02:56:23.875Z,0
2016-10-01T03:01:23.816Z,0
2016-10-01T03:06:23.427Z,0
2016-10-01T03:11:23.360Z,0
2016-10-01T03:16:23.584Z,0
2016-10-01T03:21:23.510Z,0
2016-10-01T03:26:23.437Z,0
2016-10-01T03:31:22.759Z,0
2016-10-01T03:36:22.988Z,0
2016-10-01T03:41:23.228Z,0
2016-10-01T03:46:23.152Z,0
2016-10-01T03:51:23.077Z,0
2016-10-01T03:56:22.705Z,0
2016-10-01T04:01:22.317Z,0
2016-10-01T04:06:22.557Z,0
2016-10-01T04:11:22.785Z,0
2016-10-01T04:16:22.415Z,0
2016-10-01T04:21:22.642Z,0
2016-10-01T04:26:22.567Z,0
2016-10-01T04:31:21.893Z,0
2016-10-01T04:36:22.122Z,0
2016-10-01T04:41:22.061Z,0
2016-10-01T04:46:22.281Z,0
2016-10-01T04:51:21.595Z,0
2016-10-01T04:56:21.838Z,0
2016-10-01T05:01:22.064Z,0
2016-10-01T05:06:21.716Z,0
2016-10-01T05:11:21.620Z,0
2016-10-01T05:16:21.847Z,4
2016-10-01T05:21:21.778Z,4
2016-10-01T05:26:21.708Z,4
2016-10-01T05:31:21.632Z,8
2016-10-01T05:36:21.563Z,16
2016-10-01T05:41:21.192Z,32
2016-10-01T05:46:21.416Z,52
2016-10-01T05:51:20.437Z,68
2016-10-01T05:56:21.279Z,84
2016-10-01T06:01:21.200Z,132
2016-10-01T06:06:21.134Z,280
2016-10-01T06:11:21.065Z,260
2016-10-01T06:16:20.391Z,204
2016-10-01T06:21:20.921Z,268
2016-10-01T06:26:20.251Z,356
2016-10-01T06:31:20.786Z,600
2016-10-01T06:36:20.406Z,848
2016-10-01T06:41:20.637Z,1512
2016-10-01T06:46:20.580Z,2260
2016-10-01T06:51:19.895Z,2680
2016-10-01T06:56:20.137Z,1936
2016-10-01T07:01:20.061Z,2080
2016-10-01T07:06:19.994Z,2984
2016-10-01T07:11:19.927Z,2980
2016-10-01T07:16:19.553Z,3412
2016-10-01T07:21:20.099Z,3688
2016-10-01T07:26:19.419Z,2944
2016-10-01T07:31:19.975Z,2464
2016-10-01T07:36:19.908Z,2248
2016-10-01T07:41:19.845Z,2176
2016-10-01T07:46:19.480Z,2368
2016-10-01T07:51:19.107Z,2512
2016-10-01T07:56:19.667Z,3952
2016-10-01T08:01:18.675Z,4888
2016-10-01T08:06:19.239Z,5372
2016-10-01T08:11:19.163Z,5836
2016-10-01T08:16:19.114Z,4604
2016-10-01T08:21:19.362Z,4548
2016-10-01T08:26:19.000Z,5920
2016-10-01T08:31:19.254Z,5632
2016-10-01T08:36:18.587Z,5492
2016-10-01T08:41:18.532Z,5224
2016-10-01T08:46:19.085Z,6484
2016-10-01T08:51:19.040Z,8896
2016-10-01T08:56:18.685Z,8448
2016-10-01T09:01:18.930Z,11416
2016-10-01T09:06:18.889Z,8524
2016-10-01T09:11:18.528Z,8168
2016-10-01T09:16:18.483Z,8732
2016-10-01T09:21:18.746Z,7332
2016-10-01T09:26:18.395Z,5284
2016-10-01T09:31:18.651Z,21952
2016-10-01T09:36:18.607Z,30720
2016-10-01T09:41:18.249Z,8428
2016-10-01T09:46:18.215Z,6652
2016-10-01T09:51:18.172Z,4432
2016-10-01T09:56:17.837Z,5860
2016-10-01T10:01:18.393Z,6072
2016-10-01T10:06:18.053Z,6832
2016-10-01T10:11:17.688Z,9664
2016-10-01T10:16:18.628Z,7712
2016-10-01T10:21:18.220Z,6752
2016-10-01T10:26:18.197Z,8364
2016-10-01T10:31:18.112Z,5860
2016-10-01T10:36:18.069Z,6716
2016-10-01T10:41:17.716Z,5164
2016-10-01T10:46:17.677Z,6724
2016-10-01T10:51:17.636Z,8504
2016-10-01T10:56:17.904Z,8132
2016-10-01T11:01:17.256Z,7292
2016-10-01T11:06:17.820Z,6316
2016-10-01T11:11:17.474Z,5500
2016-10-01T11:16:17.431Z,6148
2016-10-01T11:21:17.398Z,7700
2016-10-01T11:26:17.358Z,6624
2016-10-01T11:31:17.015Z,6472
2016-10-01T11:36:17.285Z,5436
2016-10-01T11:41:17.250Z,5348
2016-10-01T11:46:17.215Z,5468
2016-10-01T11:51:17.178Z,6060
2016-10-01T11:56:17.450Z,5780
2016-10-01T12:01:16.803Z,5104
2016-10-01T12:06:17.377Z,5936
2016-10-01T12:11:17.043Z,5208
2016-10-01T12:16:16.995Z,4408
2016-10-01T12:21:16.960Z,3708
2016-10-01T12:26:16.608Z,4480
2016-10-01T12:31:17.174Z,5180
2016-10-01T12:36:17.139Z,3636
2016-10-01T12:41:16.793Z,2400
2016-10-01T12:46:16.455Z,3236
2016-10-01T12:51:17.028Z,4284
2016-10-01T12:56:16.700Z,4520
2016-10-01T13:01:16.027Z,4984
2016-10-01T13:06:16.916Z,4668
2016-10-01T13:11:16.249Z,5264
2016-10-01T13:16:16.513Z,5216
2016-10-01T13:21:16.785Z,5136
2016-10-01T13:26:16.746Z,4472
2016-10-01T13:31:16.407Z,3720
2016-10-01T13:36:16.687Z,4456
2016-10-01T13:41:16.018Z,4608
2016-10-01T13:46:16.593Z,3888
2016-10-01T13:51:16.553Z,3728
2016-10-01T13:56:16.520Z,3344
2016-10-01T14:01:16.182Z,3220
2016-10-01T14:06:15.849Z,3192
2016-10-01T14:11:15.803Z,3164
2016-10-01T14:16:16.372Z,3292
2016-10-01T14:21:16.314Z,3076
2016-10-01T14:26:16.280Z,3784
2016-10-01T14:31:15.933Z,3736
2016-10-01T14:36:15.592Z,3580
2016-10-01T14:41:16.168Z,3636
2016-10-01T14:46:16.135Z,3628
2016-10-01T14:51:15.802Z,2696
2016-10-01T14:56:15.758Z,2340
2016-10-01T15:01:16.028Z,3048
2016-10-01T15:06:15.985Z,2308
2016-10-01T15:11:15.648Z,2004
2016-10-01T15:16:15.901Z,2568
2016-10-01T15:21:15.860Z,1732
2016-10-01T15:26:15.527Z,1264
2016-10-01T15:31:15.480Z,1240
2016-10-01T15:36:15.750Z,1208
2016-10-01T15:41:15.406Z,1100
2016-10-01T15:46:15.365Z,1024
2016-10-01T15:51:15.333Z,1008
2016-10-01T15:56:15.290Z,948
2016-10-01T16:01:15.259Z,952
2016-10-01T16:06:14.931Z,932
2016-10-01T16:11:15.487Z,884
2016-10-01T16:16:15.456Z,872
2016-10-01T16:21:15.105Z,832
2016-10-01T16:26:15.054Z,756
2016-10-01T16:31:14.725Z,668
2016-10-01T16:36:15.316Z,596
2016-10-01T16:41:14.952Z,524
2016-10-01T16:46:14.904Z,428
2016-10-01T16:51:14.857Z,336
2016-10-01T16:56:14.816Z,256
2016-10-01T17:01:15.067Z,192
2016-10-01T17:06:14.711Z,140
2016-10-01T17:11:14.666Z,92
2016-10-01T17:16:14.617Z,56
2016-10-01T17:21:13.985Z,32
2016-10-01T17:26:14.524Z,12
2016-10-01T17:31:14.475Z,4
2016-10-01T17:36:14.124Z,4
2016-10-01T17:41:14.683Z,0
2016-10-01T17:46:14.627Z,0
2016-10-01T17:51:14.268Z,0
2016-10-01T17:56:14.220Z,0
2016-10-01T18:01:14.170Z,0
2016-10-01T18:06:14.129Z,0
2016-10-01T18:11:14.383Z,0
2016-10-01T18:16:14.023Z,0
2016-10-01T18:21:13.655Z,0
2016-10-01T18:26:13.902Z,0
2016-10-01T18:31:14.160Z,0
2016-10-01T18:36:13.809Z,0
2016-10-01T18:41:14.059Z,0
2016-10-01T18:46:13.089Z,0
2016-10-01T18:51:13.641Z,0
2016-10-01T18:56:13.907Z,0
2016-10-01T19:01:14.828Z,0
2016-10-01T19:06:13.190Z,0
2016-10-01T19:11:13.444Z,0
2016-10-01T19:16:13.676Z,0
2016-10-01T19:21:13.321Z,0
2016-10-01T19:26:12.968Z,0
2016-10-01T19:31:13.213Z,0
2016-10-01T19:36:12.852Z,0
2016-10-01T19:41:13.092Z,0
2016-10-01T19:46:13.053Z,0
2016-10-01T19:51:12.981Z,0
2016-10-01T19:56:13.235Z,0
2016-10-01T20:01:13.192Z,0
2016-10-01T20:06:12.828Z,0
2016-10-01T20:11:12.139Z,0
2016-10-01T20:16:13.029Z,0
2016-10-01T20:21:12.650Z,0
2016-10-01T20:26:12.887Z,0
2016-10-01T20:31:12.835Z,0
2016-10-01T20:36:12.762Z,0
2016-10-01T20:41:12.101Z,0
2016-10-01T20:46:12.367Z,0
2016-10-01T20:51:12.588Z,0
2016-10-01T20:56:11.945Z,0
2016-10-01T21:01:11.871Z,0
2016-10-01T21:06:11.797Z,0
2016-10-01T21:11:12.353Z,0
2016-10-01T21:16:11.685Z,0
2016-10-01T21:21:11.935Z,0
2016-10-01T21:26:11.895Z,0
2016-10-01T21:31:11.812Z,0
2016-10-01T21:36:11.762Z,0
2016-10-01T21:41:11.700Z,0
